createdAt,value
2017-12-04T00:02:03.575Z,78.87
2017-12-04T00:04:31.947Z,93.63
2017-12-04T00:07:00.389Z,93.30
2017-12-04T00:09:28.774Z,89.90
2017-12-04T00:11:57.131Z,81.03
2017-12-04T00:14:25.469Z,85.10
2017-12-04T00:16:53.834Z,84.90
2017-12-04T00:19:22.179Z,67.00
2017-12-04T00:21:50.946Z,82.97
2017-12-04T00:24:20.057Z,65.40
2017-12-04T00:26:48.399Z,72.97
2017-12-04T00:29:17.542Z,65.80
2017-12-04T00:31:45.887Z,69.97
2017-12-04T00:34:15.037Z,54.03
2017-12-04T00:36:43.369Z,65.47
2017-12-04T00:39:11.730Z,61.43
2017-12-04T00:41:40.092Z,67.13
2017-12-04T00:44:08.533Z,58.10
2017-12-04T00:46:36.876Z,58.97
2017-12-04T00:49:05.992Z,61.97
2017-12-04T00:51:34.323Z,57.53
2017-12-04T00:54:02.784Z,58.47
2017-12-04T00:56:31.135Z,61.10
2017-12-04T00:58:59.502Z,55.93
2017-12-04T01:01:27.851Z,67.97
2017-12-04T01:03:56.188Z,57.10
2017-12-04T01:06:24.536Z,57.13
2017-12-04T01:08:52.879Z,56.03
2017-12-04T01:11:21.273Z,52.17
2017-12-04T01:13:50.428Z,53.13
2017-12-04T01:16:18.774Z,54.00
2017-12-04T01:18:47.215Z,45.87
2017-12-04T01:21:15.544Z,58.60
2017-12-04T01:23:43.907Z,43.00
2017-12-04T01:26:12.316Z,44.57
2017-12-04T01:28:40.678Z,42.60
2017-12-04T01:31:09.107Z,48.23
2017-12-04T01:33:37.463Z,37.67
2017-12-04T01:36:05.949Z,37.97
2017-12-04T01:38:34.310Z,48.43
2017-12-04T01:41:02.684Z,39.50
2017-12-04T01:43:31.025Z,55.20
2017-12-04T01:46:00.163Z,39.67
2017-12-04T01:48:28.510Z,39.20
2017-12-04T01:50:57.622Z,37.60
2017-12-04T01:53:25.980Z,39.00
2017-12-04T01:55:55.080Z,41.57
2017-12-04T01:58:24.199Z,44.77
2017-12-04T02:00:52.552Z,40.57
2017-12-04T02:03:21.662Z,41.30
2017-12-04T02:05:50.068Z,39.03
2017-12-04T02:08:18.416Z,39.63
2017-12-04T02:10:46.809Z,40.93
2017-12-04T02:13:15.162Z,41.13
2017-12-04T02:15:44.329Z,45.03
2017-12-04T02:18:12.671Z,39.67
2017-12-04T02:20:41.087Z,41.53
2017-12-04T02:23:09.508Z,38.63
2017-12-04T02:25:38.635Z,44.70
2017-12-04T02:28:07.158Z,33.83
2017-12-04T02:30:35.499Z,38.00
2017-12-04T02:33:03.879Z,37.17
2017-12-04T02:35:32.237Z,35.07
2017-12-04T02:38:00.616Z,29.17
2017-12-04T02:40:28.986Z,37.40
2017-12-04T02:42:57.327Z,31.23
2017-12-04T02:45:25.663Z,30.47
2017-12-04T02:47:54.030Z,34.70
2017-12-04T02:50:22.362Z,30.27
2017-12-04T02:52:50.702Z,29.67
2017-12-04T02:55:19.147Z,30.67
2017-12-04T02:57:48.251Z,30.53
2017-12-04T03:00:17.374Z,23.17
2017-12-04T03:02:45.820Z,31.13
2017-12-04T03:05:14.931Z,31.70
2017-12-04T03:07:44.036Z,26.67
2017-12-04T03:10:12.445Z,27.77
2017-12-04T03:12:40.807Z,30.90
2017-12-04T03:15:09.148Z,26.23
2017-12-04T03:17:38.295Z,26.07
2017-12-04T03:20:06.631Z,26.40
2017-12-04T03:22:35.743Z,31.70
2017-12-04T03:25:04.096Z,21.73
2017-12-04T03:27:33.199Z,25.70
2017-12-04T03:30:01.564Z,27.30
2017-12-04T03:32:29.941Z,24.70
2017-12-04T03:34:58.405Z,29.27
2017-12-04T03:37:26.745Z,36.37
2017-12-04T03:39:55.076Z,25.67
2017-12-04T03:42:23.425Z,28.17
2017-12-04T03:44:51.764Z,34.20
2017-12-04T03:47:20.103Z,19.83
2017-12-04T03:49:48.444Z,26.13
2017-12-04T03:52:16.812Z,26.50
2017-12-04T03:54:45.152Z,29.20
2017-12-04T03:57:14.364Z,32.57
2017-12-04T03:59:42.743Z,25.57
2017-12-04T04:02:11.846Z,32.57
2017-12-04T04:04:40.936Z,29.40
2017-12-04T04:07:10.062Z,23.67
2017-12-04T04:09:38.434Z,29.10
2017-12-04T04:12:06.933Z,29.17
2017-12-04T04:14:35.255Z,26.10
2017-12-04T04:17:03.597Z,31.27
2017-12-04T04:19:31.957Z,28.80
2017-12-04T04:22:00.300Z,26.87
2017-12-04T04:24:29.439Z,27.67
2017-12-04T04:26:57.874Z,25.30
2017-12-04T04:29:26.214Z,25.73
2017-12-04T04:31:54.551Z,31.77
2017-12-04T04:34:23.656Z,25.33
2017-12-04T04:36:52.021Z,32.07
2017-12-04T04:39:21.112Z,19.63
2017-12-04T04:41:50.221Z,24.40
2017-12-04T04:44:18.583Z,24.70
2017-12-04T04:46:47.696Z,30.00
2017-12-04T04:49:16.804Z,26.50
2017-12-04T04:51:45.135Z,26.63
2017-12-04T04:54:13.494Z,33.47
2017-12-04T04:56:41.844Z,28.57
2017-12-04T04:59:10.176Z,29.70
2017-12-04T05:01:38.557Z,21.33
2017-12-04T05:04:06.929Z,25.97
2017-12-04T05:06:35.274Z,19.50
2017-12-04T05:09:03.609Z,21.57
2017-12-04T05:11:32.729Z,24.33
2017-12-04T05:14:01.058Z,21.43
2017-12-04T05:16:29.500Z,23.80
2017-12-04T05:18:58.010Z,21.47
2017-12-04T05:21:27.049Z,25.73
2017-12-04T05:23:56.173Z,18.47
2017-12-04T05:26:24.514Z,24.47
2017-12-04T05:28:52.914Z,20.03
2017-12-04T05:31:21.271Z,27.77
2017-12-04T05:33:50.458Z,25.83
2017-12-04T05:36:18.829Z,26.23
2017-12-04T05:38:47.169Z,26.67
2017-12-04T05:41:15.521Z,23.77
2017-12-04T05:43:43.868Z,22.17
2017-12-04T05:46:12.266Z,22.23
2017-12-04T05:48:40.612Z,18.97
2017-12-04T05:51:08.950Z,25.33
2017-12-04T05:53:37.299Z,23.93
2017-12-04T05:56:05.656Z,24.23
2017-12-04T05:58:34.015Z,23.10
2017-12-04T06:01:02.350Z,26.33
2017-12-04T06:03:30.827Z,23.50
2017-12-04T06:05:59.929Z,22.17
2017-12-04T06:08:28.450Z,24.53
2017-12-04T06:10:56.816Z,19.80
2017-12-04T06:13:25.644Z,20.77
2017-12-04T06:15:53.971Z,20.93
2017-12-04T06:18:22.361Z,22.67
2017-12-04T06:20:50.678Z,17.70
2017-12-04T06:23:19.046Z,20.60
2017-12-04T06:25:47.407Z,19.07
2017-12-04T06:28:15.748Z,24.77
2017-12-04T06:30:44.867Z,14.00
2017-12-04T06:33:13.213Z,25.17
2017-12-04T06:35:42.338Z,24.37
2017-12-04T06:38:10.685Z,21.87
2017-12-04T06:40:39.006Z,17.93
2017-12-04T06:43:07.388Z,22.40
2017-12-04T06:45:35.737Z,22.13
2017-12-04T06:48:04.829Z,19.57
2017-12-04T06:50:33.944Z,21.00
2017-12-04T06:53:02.520Z,24.67
2017-12-04T06:55:30.866Z,21.53
2017-12-04T06:57:59.218Z,20.53
2017-12-04T07:00:27.544Z,19.90
2017-12-04T07:02:56.769Z,18.03
2017-12-04T07:05:25.087Z,13.37
2017-12-04T07:07:53.419Z,17.17
2017-12-04T07:10:21.857Z,19.70
2017-12-04T07:12:50.279Z,14.27
2017-12-04T07:15:19.583Z,19.67
2017-12-04T07:17:47.918Z,14.77
2017-12-04T07:20:16.275Z,22.20
2017-12-04T07:22:45.308Z,14.53
2017-12-04T07:25:14.443Z,15.03
2017-12-04T07:27:42.991Z,19.27
2017-12-04T07:30:12.591Z,18.27
2017-12-04T07:32:41.691Z,14.00
2017-12-04T07:35:10.892Z,16.93
2017-12-04T07:37:39.289Z,12.70
2017-12-04T07:40:07.595Z,13.93
2017-12-04T07:42:36.563Z,16.43
2017-12-04T07:45:04.946Z,16.70
2017-12-04T07:47:33.382Z,18.83
2017-12-04T07:50:01.724Z,20.47
2017-12-04T07:52:30.082Z,23.23
2017-12-04T07:54:58.419Z,22.17
2017-12-04T07:57:27.099Z,22.17
2017-12-04T07:59:55.623Z,20.13
2017-12-04T08:02:24.159Z,21.87
2017-12-04T08:04:52.524Z,24.87
2017-12-04T08:07:21.001Z,22.67
2017-12-04T08:09:49.447Z,18.60
2017-12-04T08:12:18.364Z,18.00
2017-12-04T08:14:47.697Z,23.57
2017-12-04T08:17:16.012Z,20.50
2017-12-04T08:19:44.659Z,20.30
2017-12-04T08:22:13.626Z,23.07
2017-12-04T08:24:43.584Z,21.93
2017-12-04T08:27:11.902Z,24.40
2017-12-04T08:29:40.269Z,16.03
2017-12-04T08:32:09.440Z,20.87
2017-12-04T08:34:40.645Z,21.13
2017-12-04T08:37:09.462Z,24.40
2017-12-04T08:39:38.193Z,22.00
2017-12-04T08:42:08.193Z,15.93
2017-12-04T08:44:37.222Z,14.43
2017-12-04T08:47:05.663Z,22.57
2017-12-04T08:49:35.170Z,18.60
2017-12-04T08:52:04.272Z,20.87
2017-12-04T08:54:33.421Z,17.83
2017-12-04T08:57:01.784Z,14.13
2017-12-04T08:59:30.681Z,13.77
2017-12-04T09:01:59.352Z,11.33
2017-12-04T09:04:27.757Z,11.63
2017-12-04T09:06:56.112Z,9.90
2017-12-04T09:09:24.434Z,8.50
2017-12-04T09:11:52.814Z,10.00
2017-12-04T09:14:21.177Z,13.93
2017-12-04T09:16:49.528Z,19.73
2017-12-04T09:19:17.878Z,14.37
2017-12-04T09:21:47.100Z,21.70
2017-12-04T09:24:15.429Z,21.60
2017-12-04T09:26:43.920Z,18.57
2017-12-04T09:29:12.692Z,17.40
2017-12-04T09:31:41.013Z,24.63
2017-12-04T09:34:10.248Z,23.23
2017-12-04T09:36:40.581Z,27.80
2017-12-04T09:39:08.966Z,28.57
2017-12-04T09:41:37.344Z,17.63
2017-12-04T09:44:05.968Z,21.33
2017-12-04T09:46:34.380Z,19.00
2017-12-04T09:49:02.728Z,20.43
2017-12-04T09:51:31.860Z,21.23
2017-12-04T09:54:00.264Z,27.37
2017-12-04T09:56:28.747Z,20.03
2017-12-04T09:58:57.500Z,19.47
2017-12-04T10:01:25.844Z,14.70
2017-12-04T10:03:54.957Z,14.40
2017-12-04T10:06:23.339Z,16.23
2017-12-04T10:08:55.423Z,24.70
2017-12-04T10:11:24.013Z,16.17
2017-12-04T10:13:52.724Z,17.67
2017-12-04T10:16:23.200Z,14.83
2017-12-04T10:18:52.625Z,15.87
2017-12-04T10:21:22.414Z,13.30
2017-12-04T10:23:52.086Z,17.07
2017-12-04T10:26:22.051Z,14.40
2017-12-04T10:28:50.672Z,9.00
2017-12-04T10:31:19.014Z,15.07
2017-12-04T10:33:48.199Z,15.57
2017-12-04T10:36:16.844Z,11.23
2017-12-04T10:38:45.414Z,13.47
2017-12-04T10:41:13.871Z,18.13
2017-12-04T10:43:42.267Z,13.73
2017-12-04T10:46:12.591Z,19.97
2017-12-04T10:48:40.941Z,12.37
2017-12-04T10:51:09.399Z,15.57
2017-12-04T10:53:39.073Z,9.33
2017-12-04T10:56:08.121Z,14.30
2017-12-04T10:58:36.966Z,14.10
2017-12-04T11:01:05.349Z,14.33
2017-12-04T11:03:33.784Z,12.40
2017-12-04T11:06:02.182Z,18.43
2017-12-04T11:08:30.591Z,14.23
2017-12-04T11:10:58.942Z,9.03
2017-12-04T11:13:27.935Z,15.23
2017-12-04T11:15:57.878Z,11.93
2017-12-04T11:18:26.454Z,17.50
2017-12-04T11:20:56.214Z,14.10
2017-12-04T11:23:25.413Z,8.60
2017-12-04T11:25:54.021Z,15.00
2017-12-04T11:28:22.830Z,13.00
2017-12-04T11:30:51.524Z,14.03
2017-12-04T11:33:21.368Z,13.63
2017-12-04T11:35:50.888Z,10.90
2017-12-04T11:38:19.418Z,9.40
2017-12-04T11:40:50.168Z,10.80
2017-12-04T11:43:19.650Z,11.57
2017-12-04T11:45:47.989Z,15.40
2017-12-04T11:48:17.300Z,15.87
2017-12-04T11:50:45.680Z,14.03
2017-12-04T11:53:15.335Z,12.80
2017-12-04T11:55:44.937Z,14.20
2017-12-04T11:58:14.022Z,14.87
2017-12-04T12:00:42.368Z,14.17
2017-12-04T12:03:10.702Z,10.20
2017-12-04T12:05:39.045Z,10.17
2017-12-04T12:08:07.483Z,14.43
2017-12-04T12:10:36.115Z,8.43
2017-12-04T12:13:04.477Z,16.50
2017-12-04T12:15:32.838Z,8.17
2017-12-04T12:18:01.963Z,13.30
2017-12-04T12:20:30.349Z,15.80
2017-12-04T12:22:58.767Z,10.37
2017-12-04T12:25:27.206Z,10.20
2017-12-04T12:27:55.867Z,10.40
2017-12-04T12:30:24.972Z,11.40
2017-12-04T12:32:53.365Z,13.47
2017-12-04T12:35:21.687Z,9.43
2017-12-04T12:37:50.027Z,9.07
2017-12-04T12:40:18.377Z,15.50
2017-12-04T12:42:47.492Z,13.40
2017-12-04T12:45:15.881Z,7.87
2017-12-04T12:47:44.248Z,11.03
2017-12-04T12:50:12.639Z,15.23
2017-12-04T12:52:40.996Z,14.20
2017-12-04T12:55:09.410Z,8.87
2017-12-04T12:57:37.772Z,9.17
2017-12-04T13:00:06.153Z,8.63
2017-12-04T13:02:34.478Z,6.43
2017-12-04T13:05:02.846Z,10.33
2017-12-04T13:07:31.202Z,8.83
2017-12-04T13:09:59.520Z,10.37
2017-12-04T13:15:03.455Z,9.40
2017-12-04T13:17:32.618Z,11.37
2017-12-04T13:20:00.980Z,13.83
2017-12-04T13:22:29.300Z,15.17
2017-12-04T13:24:57.684Z,12.90
2017-12-04T13:27:26.204Z,11.47
2017-12-04T13:29:54.565Z,12.77
2017-12-04T13:32:34.951Z,9.80
2017-12-04T13:35:15.151Z,14.57
2017-12-04T13:37:43.519Z,12.33
2017-12-04T13:40:11.859Z,9.63
2017-12-04T13:42:40.191Z,14.73
2017-12-04T13:45:08.529Z,15.70
2017-12-04T13:47:36.879Z,17.90
2017-12-04T13:50:05.212Z,9.57
2017-12-04T13:52:33.568Z,14.00
2017-12-04T13:55:01.914Z,21.23
2017-12-04T13:57:30.266Z,11.77
2017-12-04T13:59:58.620Z,14.90
2017-12-04T14:02:27.160Z,21.00
2017-12-04T14:04:56.280Z,15.07
2017-12-04T14:07:24.620Z,15.43
2017-12-04T14:09:53.874Z,7.67
2017-12-04T14:12:22.270Z,8.67
2017-12-04T14:14:50.604Z,14.23
2017-12-04T14:17:18.946Z,11.73
2017-12-04T14:19:48.038Z,9.80
2017-12-04T14:22:16.382Z,8.27
2017-12-04T14:24:44.741Z,8.73
2017-12-04T14:27:13.068Z,12.10
2017-12-04T14:29:41.452Z,9.73
2017-12-04T14:32:09.971Z,9.43
2017-12-04T14:34:38.357Z,10.43
2017-12-04T14:37:06.721Z,5.10
2017-12-04T14:39:35.065Z,7.83
2017-12-04T14:42:03.569Z,8.50
2017-12-04T14:44:31.880Z,7.37
2017-12-04T14:47:00.489Z,8.63
2017-12-04T14:49:28.828Z,5.97
2017-12-04T14:51:57.156Z,10.60
2017-12-04T14:54:25.526Z,11.33
2017-12-04T14:56:53.841Z,8.83
2017-12-04T14:59:23.022Z,4.63
2017-12-04T15:01:51.364Z,15.20
2017-12-04T15:04:19.701Z,10.10
2017-12-04T15:06:48.940Z,6.73
2017-12-04T15:09:17.293Z,11.10
2017-12-04T15:11:45.679Z,11.90
2017-12-04T15:14:14.035Z,15.73
2017-12-04T15:16:43.359Z,10.63
2017-12-04T15:19:11.699Z,11.07
2017-12-04T15:21:40.046Z,10.53
2017-12-04T15:24:08.386Z,17.87
2017-12-04T15:26:36.797Z,16.60
2017-12-04T15:29:05.147Z,16.93
2017-12-04T15:31:33.654Z,17.97
2017-12-04T15:34:01.991Z,16.33
2017-12-04T15:36:31.347Z,12.00
2017-12-04T15:38:59.695Z,13.57
2017-12-04T15:41:28.033Z,16.63
2017-12-04T15:43:56.393Z,14.80
2017-12-04T15:46:24.757Z,18.30
2017-12-04T15:48:53.095Z,17.00
2017-12-04T15:51:21.594Z,18.97
2017-12-04T15:53:49.923Z,14.17
2017-12-04T15:56:18.288Z,14.83
2017-12-04T15:58:46.626Z,16.97
2017-12-04T16:01:14.991Z,16.37
2017-12-04T16:03:43.363Z,14.87
2017-12-04T16:06:11.918Z,10.93
2017-12-04T16:08:40.264Z,15.87
2017-12-04T16:11:08.654Z,13.57
2017-12-04T16:13:37.911Z,16.63
2017-12-04T16:16:06.256Z,11.93
2017-12-04T16:18:34.596Z,13.03
2017-12-04T16:21:02.952Z,9.90
2017-12-04T16:23:31.284Z,16.37
2017-12-04T16:26:00.160Z,10.57
2017-12-04T16:28:28.501Z,13.20
2017-12-04T16:30:56.835Z,8.47
2017-12-04T16:33:25.181Z,15.47
2017-12-04T16:35:53.534Z,27.00
2017-12-04T16:38:21.901Z,20.40
2017-12-04T16:40:50.264Z,11.10
2017-12-04T16:43:18.744Z,16.13
2017-12-04T16:45:47.861Z,12.63
2017-12-04T16:48:17.106Z,13.43
2017-12-04T16:50:45.481Z,11.03
2017-12-04T16:53:13.929Z,15.67
2017-12-04T16:55:42.285Z,14.73
2017-12-04T16:58:10.668Z,17.67
2017-12-04T17:00:39.832Z,12.53
2017-12-04T17:03:08.293Z,21.07
2017-12-04T17:05:36.652Z,14.13
2017-12-04T17:08:05.016Z,15.13
2017-12-04T17:10:34.135Z,14.47
2017-12-04T17:13:02.630Z,12.77
2017-12-04T17:15:30.999Z,15.97
2017-12-04T17:17:59.340Z,11.07
2017-12-04T17:20:28.505Z,12.20
2017-12-04T17:22:56.939Z,15.07
2017-12-04T17:25:26.053Z,8.30
2017-12-04T17:27:54.495Z,14.30
2017-12-04T17:30:22.857Z,11.53
2017-12-04T17:32:51.201Z,15.17
2017-12-04T17:35:19.537Z,10.60
2017-12-04T17:37:47.954Z,13.50
2017-12-04T17:40:16.297Z,14.70
2017-12-04T17:42:45.631Z,13.07
2017-12-04T17:45:14.224Z,9.23
2017-12-04T17:47:42.596Z,19.17
2017-12-04T17:50:10.951Z,16.27
2017-12-04T17:52:39.476Z,19.37
2017-12-04T17:55:07.939Z,9.93
2017-12-04T17:57:36.274Z,16.23
2017-12-04T18:00:05.378Z,13.83
2017-12-04T18:02:34.538Z,18.90
2017-12-04T18:05:03.024Z,12.17
2017-12-04T18:07:31.410Z,12.97
2017-12-04T18:09:59.860Z,13.83
2017-12-04T18:12:28.192Z,15.50
2017-12-04T18:14:56.645Z,14.17
2017-12-04T18:17:25.346Z,14.77
2017-12-04T18:19:53.705Z,11.90
2017-12-04T18:22:22.059Z,17.20
2017-12-04T18:24:50.413Z,17.43
2017-12-04T18:27:19.540Z,18.07
2017-12-04T18:29:47.899Z,14.20
2017-12-04T18:32:16.285Z,16.40
2017-12-04T18:34:44.655Z,12.40
2017-12-04T18:37:13.044Z,19.23
2017-12-04T18:39:41.792Z,9.10
2017-12-04T18:42:10.918Z,11.00
2017-12-04T18:44:41.521Z,11.57
2017-12-04T18:47:09.891Z,9.90
2017-12-04T18:49:38.267Z,13.60
2017-12-04T18:52:07.579Z,15.20
2017-12-04T18:54:36.101Z,12.60
2017-12-04T18:57:05.355Z,13.83
2017-12-04T18:59:33.790Z,14.80
2017-12-04T19:02:03.831Z,13.43
2017-12-04T19:04:32.186Z,14.97
2017-12-04T19:07:00.541Z,14.83
2017-12-04T19:09:28.902Z,11.17
2017-12-04T19:11:57.237Z,13.57
2017-12-04T19:14:25.557Z,7.60
2017-12-04T19:16:54.215Z,12.67
2017-12-04T19:19:22.560Z,11.73
2017-12-04T19:21:51.992Z,14.83
2017-12-04T19:24:20.331Z,13.93
2017-12-04T19:26:48.664Z,18.47
2017-12-04T19:29:17.713Z,9.73
2017-12-04T19:31:46.151Z,9.13
2017-12-04T19:34:14.489Z,11.37
2017-12-04T19:36:42.824Z,10.73
2017-12-04T19:39:11.190Z,17.83
2017-12-04T19:41:40.311Z,26.33
2017-12-04T19:44:08.663Z,10.63
2017-12-04T19:46:37.010Z,7.37
2017-12-04T19:49:05.352Z,9.50
2017-12-04T19:51:33.695Z,6.80
2017-12-04T19:54:02.041Z,8.80
2017-12-04T19:56:30.400Z,10.90
2017-12-04T19:58:58.742Z,15.20
2017-12-04T20:01:27.850Z,8.20
2017-12-04T20:03:56.213Z,9.13
2017-12-04T20:06:25.339Z,10.40
2017-12-04T20:08:53.692Z,19.23
2017-12-04T20:11:22.836Z,11.93
2017-12-04T20:13:51.216Z,16.10
2017-12-04T20:16:19.570Z,12.03
2017-12-04T20:18:48.955Z,13.83
2017-12-04T20:21:20.330Z,13.67
2017-12-04T20:23:48.664Z,15.27
2017-12-04T20:26:17.969Z,11.50
2017-12-04T20:28:46.299Z,15.97
2017-12-04T20:31:18.399Z,24.90
2017-12-04T20:33:46.726Z,20.00
2017-12-04T20:36:15.064Z,27.10
2017-12-04T20:38:43.427Z,25.63
2017-12-04T20:41:11.756Z,24.13
2017-12-04T20:43:40.150Z,17.77
2017-12-04T20:46:08.708Z,19.13
2017-12-04T20:48:37.811Z,24.93
2017-12-04T20:51:06.149Z,23.70
2017-12-04T20:53:34.688Z,22.33
2017-12-04T20:56:03.019Z,22.23
2017-12-04T20:58:31.358Z,24.00
2017-12-04T21:00:59.696Z,30.97
2017-12-04T21:03:28.804Z,28.20
2017-12-04T21:05:57.173Z,28.60
2017-12-04T21:08:38.097Z,29.43
2017-12-04T21:11:18.257Z,35.43
2017-12-04T21:13:58.574Z,24.50
2017-12-04T21:16:45.645Z,33.17
2017-12-04T21:19:14.829Z,32.47
2017-12-04T21:21:43.184Z,32.03
2017-12-04T21:24:11.520Z,23.23
2017-12-04T21:26:40.640Z,35.20
2017-12-04T21:29:09.011Z,29.30
2017-12-04T21:31:38.113Z,31.40
2017-12-04T21:34:06.443Z,32.27
2017-12-04T21:36:34.888Z,28.93
2017-12-04T21:39:03.232Z,23.73
2017-12-04T21:41:32.351Z,38.53
2017-12-04T21:44:00.775Z,34.50
2017-12-04T21:46:29.098Z,33.93
2017-12-04T21:48:57.439Z,26.93
2017-12-04T21:51:25.790Z,37.50
2017-12-04T21:53:54.211Z,32.97
2017-12-04T21:56:22.549Z,34.57
2017-12-04T21:58:50.888Z,27.27
2017-12-04T22:01:20.172Z,36.00
2017-12-04T22:03:49.387Z,33.47
2017-12-04T22:06:18.656Z,32.93
2017-12-04T22:08:47.000Z,31.27
2017-12-04T22:11:15.420Z,27.17
2017-12-04T22:13:43.807Z,32.60
2017-12-04T22:16:12.253Z,37.10
2017-12-04T22:18:40.601Z,30.73
2017-12-04T22:21:08.956Z,35.03
2017-12-04T22:23:37.637Z,36.60
2017-12-04T22:26:06.032Z,37.87
2017-12-04T22:28:35.240Z,32.13
2017-12-04T22:31:04.537Z,39.13
2017-12-04T22:33:32.945Z,34.60
2017-12-04T22:36:01.305Z,36.43
2017-12-04T22:38:29.862Z,44.23
2017-12-04T22:40:58.372Z,38.57
2017-12-04T22:43:26.720Z,39.67
2017-12-04T22:45:55.828Z,33.40
2017-12-04T22:48:25.081Z,39.23
2017-12-04T22:50:53.403Z,38.80
2017-12-04T22:53:22.948Z,39.63
2017-12-04T22:55:51.292Z,42.30
2017-12-04T22:58:20.415Z,31.97
2017-12-04T23:00:48.799Z,37.70
2017-12-04T23:03:17.131Z,29.80
2017-12-04T23:05:46.312Z,36.23
2017-12-04T23:08:14.784Z,41.03
2017-12-04T23:10:43.141Z,39.77
2017-12-04T23:13:11.533Z,29.90
2017-12-04T23:15:39.904Z,37.07
2017-12-04T23:18:08.364Z,34.23
2017-12-04T23:20:36.781Z,33.57
2017-12-04T23:23:05.125Z,33.60
2017-12-04T23:25:33.505Z,41.00
2017-12-04T23:28:02.035Z,37.87
2017-12-04T23:30:30.373Z,30.40
2017-12-04T23:32:58.761Z,26.83
2017-12-04T23:35:27.185Z,30.27
2017-12-04T23:37:55.525Z,31.57
2017-12-04T23:40:23.988Z,31.30
2017-12-04T23:42:52.352Z,25.83
2017-12-04T23:45:20.800Z,31.90
2017-12-04T23:47:49.153Z,32.03
2017-12-04T23:50:17.504Z,27.30
2017-12-04T23:52:45.815Z,38.47
2017-12-04T23:55:14.183Z,25.73
2017-12-04T23:57:42.521Z,30.97
